Terminal Aerodrome Forecast
Issued by NWS

Home | Current Version | Previous Version | Text Only | Print | Product List | Glossary On
Versions: 1 2 3 4 5 6 7 8 9 10 11 12 13 14 15 16 17 18 19 20 21 22 23 24 25 26 27 28
000
FTUS42 KJAX 160300 AAA
TAFCRG
TAF AMD
KCRG 160349Z 1604/1624 32015G20KT P6SM OVC025
     FM160500 35012G18KT P6SM SCT020
     FM161300 05015G25KT P6SM BKN025=

USA.gov is the U.S. government's official web portal to all federal, state and local government web resources and services.